Beaver, Kentucky
Current Conditions -  °F | °C
As of 12:55 PM on Saturday 22 Nov 2014 (Local Time) from KPBX Reporting Station
Overcast Overcast  
Wind Chill: 55°   Ceiling: 9000
Heat Index: 55°   Visibility: 10mi
Dew Point: 24°   Wind: 5mph
Humidity: 31%   Direction: 170°S
Pressure: 30.3"   Gusts: NA
Location:  37.4°N, 82.65°W
Report Text: KPBX 221755Z AUTO 17004KT 10SM OVC090 13/M04 A3030 RMK AO2 T01271042 10130 20003
Loading
Personal Weather Stations






























Interactive Weather Map New forecast layout! Learn more

10-Day Weather Forecast

Advertisements
Track Severe Weather on mobile